This is the latest recevied weather packets stored in our database for station/object W2GLD-13. If no packets are shown the sender has not sent any weather packets the latest 10 day(s).
| Time | Temp. | Humidity | Pressure | Rain* | Wind** | Luminosity | Snow |
|---|---|---|---|---|---|---|---|
| 1777850105 | 14.44° C | 57% | 1008 hPa | 0 mm | - | - | - |
| 1777849205 | 16.11° C | 46% | 1008.2 hPa | 0 mm | - | - | - |
| 1777848305 | 16.11° C | 46% | 1008.2 hPa | 0 mm | - | - | - |
| 1777847405 | 16.11° C | 46% | 1008.2 hPa | 0 mm | - | - | - |
| 1777846505 | 16.11° C | 46% | 1008.2 hPa | 0 mm | - | - | - |
| 1777845606 | 16.67° C | 42% | 1008 hPa | 0 mm | - | - | - |
| 1777844706 | 16.67° C | 42% | 1008 hPa | 0 mm | - | - | - |
| 1777843806 | 16.67° C | 42% | 1008 hPa | 0 mm | - | - | - |
| 1777842906 | 16.67° C | 42% | 1008 hPa | 0 mm | - | - | - |
| 1777842005 | 17.22° C | 39% | 1008.5 hPa | 0 mm | - | - | - |
| 1777841105 | 17.22° C | 39% | 1008.5 hPa | 0 mm | - | - | - |
| 1777840205 | 17.22° C | 39% | 1008.5 hPa | 0 mm | - | - | - |
| 1777839305 | 17.22° C | 39% | 1008.5 hPa | 0 mm | - | - | - |
| 1777838405 | 16.67° C | 39% | 1009.2 hPa | 0 mm | - | - | - |
| 1777837506 | 16.67° C | 39% | 1009.2 hPa | 0 mm | - | - | - |
| 1777836606 | 16.67° C | 39% | 1009.2 hPa | 0 mm | - | - | - |
| 1777835706 | 16.67° C | 39% | 1009.2 hPa | 0 mm | - | - | - |
| 1777834806 | 16.11° C | 39% | 1010 hPa | 0 mm | - | - | - |
| 1777833905 | 16.11° C | 39% | 1010 hPa | 0 mm | - | - | - |
| 1777833006 | 16.11° C | 39% | 1010 hPa | 0 mm | - | - | - |
| 1777832105 | 16.11° C | 39% | 1010 hPa | 0 mm | - | - | - |
| 1777831205 | 13.89° C | 45% | 1011 hPa | 0 mm | - | - | - |
| 1777830305 | 13.89° C | 45% | 1011 hPa | 0 mm | - | - | - |
| 1777829405 | 13.89° C | 45% | 1011 hPa | 0 mm | - | - | - |
| 1777828506 | 13.89° C | 45% | 1011 hPa | 0 mm | - | - | - |
* Rain latest hour (hover to see other rain measurements)
** Current wind speed in m/s (hover to see current wind gust speed)